Carrollton, Georgia
Current Conditions -  °F | °C
As of 11:15 AM on Sunday 23 Nov 2014 (Local Time) from KPUJ Reporting Station
Thunderstorm Thunderstorm  
Wind Chill: 52°   Ceiling: 200
Heat Index: 52°   Visibility: 4mi
Dew Point: 52°   Wind: 13mph
Humidity: 100%   Direction: 120°ESE
Pressure: 29.94"   Gusts: 18mph
Location:  33.58°N, 85.08°W
Report Text: KPUJ 231615Z AUTO 12011G16KT 4SM -VCTSRA OVC002 11/11 A2994 RMK AO2 LTG DSNT SW
Loading
Personal Weather Stations






























Interactive Weather Map New forecast layout! Learn more

10-Day Weather Forecast

Advertisements
Track Severe Weather on mobile